sensor_id;sensor_type;location;lat;lon;timestamp;P1;durP1;ratioP1;P2;durP2;ratioP2
44438;SDS011;30145;48.874;10.186;2023-06-24T00:01:19;3.00;;;2.60;;
44438;SDS011;30145;48.874;10.186;2023-06-24T00:03:46;3.10;;;2.70;;
44438;SDS011;30145;48.874;10.186;2023-06-24T00:06:14;3.37;;;2.70;;
44438;SDS011;30145;48.874;10.186;2023-06-24T00:08:45;3.30;;;2.60;;
44438;SDS011;30145;48.874;10.186;2023-06-24T00:11:12;3.33;;;2.67;;
44438;SDS011;30145;48.874;10.186;2023-06-24T00:13:40;3.97;;;3.10;;
44438;SDS011;30145;48.874;10.186;2023-06-24T00:16:08;3.60;;;2.70;;
44438;SDS011;30145;48.874;10.186;2023-06-24T00:18:36;3.20;;;2.90;;
44438;SDS011;30145;48.874;10.186;2023-06-24T00:21:03;3.10;;;2.43;;
44438;SDS011;30145;48.874;10.186;2023-06-24T00:23:31;4.13;;;2.80;;
44438;SDS011;30145;48.874;10.186;2023-06-24T00:26:00;3.60;;;2.90;;
44438;SDS011;30145;48.874;10.186;2023-06-24T00:28:28;2.57;;;2.33;;
44438;SDS011;30145;48.874;10.186;2023-06-24T00:30:55;3.00;;;2.53;;
44438;SDS011;30145;48.874;10.186;2023-06-24T00:33:22;3.97;;;2.73;;
44438;SDS011;30145;48.874;10.186;2023-06-24T00:35:49;3.43;;;2.53;;
44438;SDS011;30145;48.874;10.186;2023-06-24T00:38:16;4.03;;;2.63;;
44438;SDS011;30145;48.874;10.186;2023-06-24T00:40:43;3.10;;;2.80;;
44438;SDS011;30145;48.874;10.186;2023-06-24T00:43:10;4.23;;;3.10;;
44438;SDS011;30145;48.874;10.186;2023-06-24T00:45:37;3.93;;;2.80;;
44438;SDS011;30145;48.874;10.186;2023-06-24T00:48:05;3.33;;;2.93;;
44438;SDS011;30145;48.874;10.186;2023-06-24T00:50:32;4.23;;;3.00;;
44438;SDS011;30145;48.874;10.186;2023-06-24T00:52:59;4.10;;;2.83;;
44438;SDS011;30145;48.874;10.186;2023-06-24T00:55:26;4.73;;;2.90;;
44438;SDS011;30145;48.874;10.186;2023-06-24T00:57:55;4.63;;;2.93;;
44438;SDS011;30145;48.874;10.186;2023-06-24T01:00:22;3.60;;;3.10;;
44438;SDS011;30145;48.874;10.186;2023-06-24T01:02:50;3.00;;;2.67;;
44438;SDS011;30145;48.874;10.186;2023-06-24T01:05:18;3.03;;;2.50;;
44438;SDS011;30145;48.874;10.186;2023-06-24T01:07:49;3.63;;;3.03;;
44438;SDS011;30145;48.874;10.186;2023-06-24T01:10:22;3.07;;;2.77;;
44438;SDS011;30145;48.874;10.186;2023-06-24T01:12:50;4.00;;;2.67;;
44438;SDS011;30145;48.874;10.186;2023-06-24T01:15:17;3.67;;;2.30;;
44438;SDS011;30145;48.874;10.186;2023-06-24T01:29:09;3.23;;;2.87;;
44438;SDS011;30145;48.874;10.186;2023-06-24T01:32:59;3.10;;;2.80;;
44438;SDS011;30145;48.874;10.186;2023-06-24T01:35:11;4.07;;;2.70;;
44438;SDS011;30145;48.874;10.186;2023-06-24T01:37:42;2.73;;;2.43;;
44438;SDS011;30145;48.874;10.186;2023-06-24T01:42:55;4.03;;;2.80;;
44438;SDS011;30145;48.874;10.186;2023-06-24T01:45:37;3.20;;;2.90;;
44438;SDS011;30145;48.874;10.186;2023-06-24T01:51:10;3.20;;;2.90;;
44438;SDS011;30145;48.874;10.186;2023-06-24T01:53:41;4.10;;;3.40;;
44438;SDS011;30145;48.874;10.186;2023-06-24T01:56:14;3.23;;;2.70;;
44438;SDS011;30145;48.874;10.186;2023-06-24T01:58:42;4.40;;;2.90;;
44438;SDS011;30145;48.874;10.186;2023-06-24T02:01:10;4.17;;;3.00;;
44438;SDS011;30145;48.874;10.186;2023-06-24T02:03:39;2.83;;;2.53;;
44438;SDS011;30145;48.874;10.186;2023-06-24T02:06:07;3.17;;;2.43;;
44438;SDS011;30145;48.874;10.186;2023-06-24T02:08:37;2.80;;;2.50;;
44438;SDS011;30145;48.874;10.186;2023-06-24T02:47:55;5.87;;;3.33;;
44438;SDS011;30145;48.874;10.186;2023-06-24T02:50:23;3.77;;;2.93;;
44438;SDS011;30145;48.874;10.186;2023-06-24T02:52:51;3.77;;;3.37;;
44438;SDS011;30145;48.874;10.186;2023-06-24T07:05:26;4.73;;;3.93;;
44438;SDS011;30145;48.874;10.186;2023-06-24T07:07:53;4.50;;;3.43;;
44438;SDS011;30145;48.874;10.186;2023-06-24T07:10:20;4.70;;;4.17;;
44438;SDS011;30145;48.874;10.186;2023-06-24T07:12:47;5.77;;;4.63;;
44438;SDS011;30145;48.874;10.186;2023-06-24T07:15:14;4.50;;;3.97;;
44438;SDS011;30145;48.874;10.186;2023-06-24T07:17:45;5.57;;;4.60;;
44438;SDS011;30145;48.874;10.186;2023-06-24T07:20:12;5.63;;;4.47;;
44438;SDS011;30145;48.874;10.186;2023-06-24T07:22:40;4.63;;;3.87;;
44438;SDS011;30145;48.874;10.186;2023-06-24T07:25:06;6.07;;;4.53;;
44438;SDS011;30145;48.874;10.186;2023-06-24T07:27:33;5.30;;;4.07;;
44438;SDS011;30145;48.874;10.186;2023-06-24T07:30:01;5.53;;;4.13;;
44438;SDS011;30145;48.874;10.186;2023-06-24T07:32:27;4.07;;;3.57;;
44438;SDS011;30145;48.874;10.186;2023-06-24T07:34:54;6.70;;;4.17;;
44438;SDS011;30145;48.874;10.186;2023-06-24T07:37:22;4.10;;;3.60;;
44438;SDS011;30145;48.874;10.186;2023-06-24T07:39:50;4.43;;;3.30;;
44438;SDS011;30145;48.874;10.186;2023-06-24T07:42:17;4.33;;;3.90;;
44438;SDS011;30145;48.874;10.186;2023-06-24T07:44:47;4.47;;;3.40;;
44438;SDS011;30145;48.874;10.186;2023-06-24T07:47:16;5.87;;;3.90;;
44438;SDS011;30145;48.874;10.186;2023-06-24T07:49:43;4.37;;;3.57;;
44438;SDS011;30145;48.874;10.186;2023-06-24T07:52:10;5.53;;;3.80;;
44438;SDS011;30145;48.874;10.186;2023-06-24T07:54:37;4.77;;;3.83;;
44438;SDS011;30145;48.874;10.186;2023-06-24T07:57:04;5.30;;;3.53;;
44438;SDS011;30145;48.874;10.186;2023-06-24T07:59:31;10.73;;;5.40;;
44438;SDS011;30145;48.874;10.186;2023-06-24T08:01:58;7.67;;;4.63;;
44438;SDS011;30145;48.874;10.186;2023-06-24T08:04:25;6.17;;;4.17;;
44438;SDS011;30145;48.874;10.186;2023-06-24T08:06:53;5.80;;;4.27;;
44438;SDS011;30145;48.874;10.186;2023-06-24T08:09:20;4.50;;;3.90;;
44438;SDS011;30145;48.874;10.186;2023-06-24T08:11:47;4.17;;;3.60;;
44438;SDS011;30145;48.874;10.186;2023-06-24T08:14:14;4.97;;;3.83;;
44438;SDS011;30145;48.874;10.186;2023-06-24T08:16:41;5.33;;;4.50;;
44438;SDS011;30145;48.874;10.186;2023-06-24T08:19:08;5.97;;;4.00;;
44438;SDS011;30145;48.874;10.186;2023-06-24T08:21:35;5.00;;;4.10;;
44438;SDS011;30145;48.874;10.186;2023-06-24T08:24:04;4.50;;;3.97;;
44438;SDS011;30145;48.874;10.186;2023-06-24T08:26:32;4.40;;;4.00;;
44438;SDS011;30145;48.874;10.186;2023-06-24T08:28:59;5.00;;;4.20;;
44438;SDS011;30145;48.874;10.186;2023-06-24T08:31:26;5.40;;;3.93;;
44438;SDS011;30145;48.874;10.186;2023-06-24T08:33:53;10.67;;;4.50;;
44438;SDS011;30145;48.874;10.186;2023-06-24T08:36:21;4.53;;;4.00;;
44438;SDS011;30145;48.874;10.186;2023-06-24T08:38:50;4.50;;;3.87;;
44438;SDS011;30145;48.874;10.186;2023-06-24T08:41:17;4.67;;;4.17;;
44438;SDS011;30145;48.874;10.186;2023-06-24T08:43:44;5.10;;;4.00;;
44438;SDS011;30145;48.874;10.186;2023-06-24T08:46:12;5.57;;;4.27;;
44438;SDS011;30145;48.874;10.186;2023-06-24T08:48:39;4.50;;;4.10;;
44438;SDS011;30145;48.874;10.186;2023-06-24T08:51:09;4.17;;;3.77;;
44438;SDS011;30145;48.874;10.186;2023-06-24T08:53:38;5.57;;;3.53;;
44438;SDS011;30145;48.874;10.186;2023-06-24T08:56:09;4.43;;;3.40;;
44438;SDS011;30145;48.874;10.186;2023-06-24T08:58:36;5.37;;;4.13;;
44438;SDS011;30145;48.874;10.186;2023-06-24T09:01:03;5.87;;;3.77;;
44438;SDS011;30145;48.874;10.186;2023-06-24T09:03:30;7.07;;;4.20;;
44438;SDS011;30145;48.874;10.186;2023-06-24T09:05:58;7.83;;;4.10;;
44438;SDS011;30145;48.874;10.186;2023-06-24T09:08:25;4.37;;;3.57;;
44438;SDS011;30145;48.874;10.186;2023-06-24T09:10:53;4.10;;;3.70;;
44438;SDS011;30145;48.874;10.186;2023-06-24T09:13:36;5.03;;;3.43;;
44438;SDS011;30145;48.874;10.186;2023-06-24T09:16:13;5.77;;;3.33;;
44438;SDS011;30145;48.874;10.186;2023-06-24T09:18:41;3.90;;;3.60;;
44438;SDS011;30145;48.874;10.186;2023-06-24T09:21:10;4.73;;;3.10;;
44438;SDS011;30145;48.874;10.186;2023-06-24T09:23:37;6.00;;;3.50;;
44438;SDS011;30145;48.874;10.186;2023-06-24T09:26:05;3.90;;;3.30;;
44438;SDS011;30145;48.874;10.186;2023-06-24T09:28:38;4.23;;;3.50;;
44438;SDS011;30145;48.874;10.186;2023-06-24T09:31:09;5.17;;;3.37;;
44438;SDS011;30145;48.874;10.186;2023-06-24T09:33:44;3.50;;;3.20;;
44438;SDS011;30145;48.874;10.186;2023-06-24T09:36:11;3.73;;;2.90;;
44438;SDS011;30145;48.874;10.186;2023-06-24T09:38:41;3.20;;;2.80;;
44438;SDS011;30145;48.874;10.186;2023-06-24T09:41:10;3.60;;;3.10;;
44438;SDS011;30145;48.874;10.186;2023-06-24T09:43:40;4.67;;;3.00;;
44438;SDS011;30145;48.874;10.186;2023-06-24T09:46:10;3.30;;;3.00;;
44438;SDS011;30145;48.874;10.186;2023-06-24T09:48:38;3.77;;;3.20;;
44438;SDS011;30145;48.874;10.186;2023-06-24T09:51:05;3.20;;;2.87;;
44438;SDS011;30145;48.874;10.186;2023-06-24T09:53:33;4.03;;;3.27;;
44438;SDS011;30145;48.874;10.186;2023-06-24T09:56:02;3.63;;;3.20;;
44438;SDS011;30145;48.874;10.186;2023-06-24T09:58:31;3.57;;;3.07;;
44438;SDS011;30145;48.874;10.186;2023-06-24T10:01:02;3.97;;;2.87;;
44438;SDS011;30145;48.874;10.186;2023-06-24T10:03:35;3.10;;;2.80;;
44438;SDS011;30145;48.874;10.186;2023-06-24T10:06:03;3.07;;;2.20;;
44438;SDS011;30145;48.874;10.186;2023-06-24T10:08:31;3.07;;;2.77;;
44438;SDS011;30145;48.874;10.186;2023-06-24T10:10:59;3.47;;;3.15;;
44438;SDS011;30145;48.874;10.186;2023-06-24T10:13:26;3.27;;;2.97;;
44438;SDS011;30145;48.874;10.186;2023-06-24T10:15:55;3.60;;;2.90;;
44438;SDS011;30145;48.874;10.186;2023-06-24T10:18:32;3.80;;;3.20;;
44438;SDS011;30145;48.874;10.186;2023-06-24T10:21:03;3.20;;;2.83;;
44438;SDS011;30145;48.874;10.186;2023-06-24T10:23:52;4.23;;;2.97;;
44438;SDS011;30145;48.874;10.186;2023-06-24T10:26:27;3.93;;;3.47;;
44438;SDS011;30145;48.874;10.186;2023-06-24T10:36:53;2.63;;;2.43;;
44438;SDS011;30145;48.874;10.186;2023-06-24T10:44:58;3.30;;;3.00;;
44438;SDS011;30145;48.874;10.186;2023-06-24T10:47:29;3.57;;;2.73;;
44438;SDS011;30145;48.874;10.186;2023-06-24T10:49:56;4.40;;;2.77;;
44438;SDS011;30145;48.874;10.186;2023-06-24T10:52:24;3.03;;;2.53;;
44438;SDS011;30145;48.874;10.186;2023-06-24T10:54:51;3.17;;;2.87;;
44438;SDS011;30145;48.874;10.186;2023-06-24T10:57:23;2.80;;;2.60;;
44438;SDS011;30145;48.874;10.186;2023-06-24T10:59:52;3.20;;;2.90;;
44438;SDS011;30145;48.874;10.186;2023-06-24T11:02:21;2.60;;;2.40;;
44438;SDS011;30145;48.874;10.186;2023-06-24T11:04:50;3.80;;;2.77;;
44438;SDS011;30145;48.874;10.186;2023-06-24T11:07:19;5.60;;;2.63;;
44438;SDS011;30145;48.874;10.186;2023-06-24T11:09:53;3.23;;;2.50;;
44438;SDS011;30145;48.874;10.186;2023-06-24T11:12:25;3.87;;;2.70;;
44438;SDS011;30145;48.874;10.186;2023-06-24T11:14:57;4.13;;;2.57;;
44438;SDS011;30145;48.874;10.186;2023-06-24T11:17:25;4.17;;;2.20;;
44438;SDS011;30145;48.874;10.186;2023-06-24T11:19:53;3.10;;;2.40;;
44438;SDS011;30145;48.874;10.186;2023-06-24T11:22:21;4.57;;;2.57;;
44438;SDS011;30145;48.874;10.186;2023-06-24T11:24:48;2.83;;;2.53;;
44438;SDS011;30145;48.874;10.186;2023-06-24T11:27:15;2.30;;;1.98;;
44438;SDS011;30145;48.874;10.186;2023-06-24T11:29:44;2.28;;;2.08;;
44438;SDS011;30145;48.874;10.186;2023-06-24T11:32:11;3.08;;;2.00;;
44438;SDS011;30145;48.874;10.186;2023-06-24T11:34:38;2.97;;;2.45;;
44438;SDS011;30145;48.874;10.186;2023-06-24T11:37:10;2.53;;;2.17;;
44438;SDS011;30145;48.874;10.186;2023-06-24T11:39:40;2.75;;;2.20;;
44438;SDS011;30145;48.874;10.186;2023-06-24T11:42:08;2.60;;;2.40;;
44438;SDS011;30145;48.874;10.186;2023-06-24T11:44:36;2.72;;;2.40;;
44438;SDS011;30145;48.874;10.186;2023-06-24T11:47:09;2.95;;;2.60;;
44438;SDS011;30145;48.874;10.186;2023-06-24T11:49:54;2.75;;;2.47;;
44438;SDS011;30145;48.874;10.186;2023-06-24T11:55:22;4.70;;;2.80;;
44438;SDS011;30145;48.874;10.186;2023-06-24T12:00:40;4.82;;;2.40;;
44438;SDS011;30145;48.874;10.186;2023-06-24T12:03:10;2.70;;;2.40;;
44438;SDS011;30145;48.874;10.186;2023-06-24T12:05:38;2.72;;;2.30;;
44438;SDS011;30145;48.874;10.186;2023-06-24T12:08:12;10.18;;;2.70;;
44438;SDS011;30145;48.874;10.186;2023-06-24T12:10:42;4.25;;;2.70;;
44438;SDS011;30145;48.874;10.186;2023-06-24T12:13:10;3.08;;;2.50;;
44438;SDS011;30145;48.874;10.186;2023-06-24T12:15:37;3.17;;;2.67;;
44438;SDS011;30145;48.874;10.186;2023-06-24T12:18:04;3.13;;;2.58;;
44438;SDS011;30145;48.874;10.186;2023-06-24T12:20:32;2.87;;;2.67;;
44438;SDS011;30145;48.874;10.186;2023-06-24T12:23:01;2.78;;;2.58;;
44438;SDS011;30145;48.874;10.186;2023-06-24T12:25:32;3.00;;;2.70;;
44438;SDS011;30145;48.874;10.186;2023-06-24T12:27:59;3.38;;;2.40;;
44438;SDS011;30145;48.874;10.186;2023-06-24T12:30:26;3.67;;;2.75;;
44438;SDS011;30145;48.874;10.186;2023-06-24T12:32:54;3.40;;;3.10;;
44438;SDS011;30145;48.874;10.186;2023-06-24T12:35:21;3.10;;;2.30;;
44438;SDS011;30145;48.874;10.186;2023-06-24T12:37:51;3.50;;;2.50;;
44438;SDS011;30145;48.874;10.186;2023-06-24T12:40:18;3.55;;;2.55;;
44438;SDS011;30145;48.874;10.186;2023-06-24T12:42:46;2.97;;;2.67;;
44438;SDS011;30145;48.874;10.186;2023-06-24T12:45:13;3.63;;;2.70;;
44438;SDS011;30145;48.874;10.186;2023-06-24T12:47:40;2.83;;;2.30;;
44438;SDS011;30145;48.874;10.186;2023-06-24T12:50:07;2.72;;;2.40;;
44438;SDS011;30145;48.874;10.186;2023-06-24T12:52:35;2.97;;;2.67;;
44438;SDS011;30145;48.874;10.186;2023-06-24T12:55:02;3.97;;;2.65;;
44438;SDS011;30145;48.874;10.186;2023-06-24T12:57:30;4.25;;;2.67;;
44438;SDS011;30145;48.874;10.186;2023-06-24T12:59:57;3.17;;;2.75;;
44438;SDS011;30145;48.874;10.186;2023-06-24T13:02:24;3.10;;;2.58;;
44438;SDS011;30145;48.874;10.186;2023-06-24T13:04:51;3.83;;;2.55;;
44438;SDS011;30145;48.874;10.186;2023-06-24T13:07:18;3.08;;;2.75;;
44438;SDS011;30145;48.874;10.186;2023-06-24T13:09:45;2.60;;;2.40;;
44438;SDS011;30145;48.874;10.186;2023-06-24T13:12:12;2.83;;;2.40;;
44438;SDS011;30145;48.874;10.186;2023-06-24T13:14:39;3.03;;;2.70;;
44438;SDS011;30145;48.874;10.186;2023-06-24T13:17:06;3.50;;;2.70;;
44438;SDS011;30145;48.874;10.186;2023-06-24T13:19:33;2.65;;;2.40;;
44438;SDS011;30145;48.874;10.186;2023-06-24T13:22:00;3.08;;;2.78;;
44438;SDS011;30145;48.874;10.186;2023-06-24T13:24:27;3.50;;;2.85;;
44438;SDS011;30145;48.874;10.186;2023-06-24T13:26:54;2.70;;;2.50;;
44438;SDS011;30145;48.874;10.186;2023-06-24T13:29:22;4.28;;;2.95;;
44438;SDS011;30145;48.874;10.186;2023-06-24T13:31:49;3.38;;;2.67;;
44438;SDS011;30145;48.874;10.186;2023-06-24T13:34:16;3.65;;;2.78;;
44438;SDS011;30145;48.874;10.186;2023-06-24T13:36:43;3.38;;;2.38;;
44438;SDS011;30145;48.874;10.186;2023-06-24T13:39:14;3.08;;;2.78;;
44438;SDS011;30145;48.874;10.186;2023-06-24T13:41:46;3.00;;;2.65;;
44438;SDS011;30145;48.874;10.186;2023-06-24T13:44:13;6.07;;;5.35;;
44438;SDS011;30145;48.874;10.186;2023-06-24T13:46:40;3.05;;;2.75;;
44438;SDS011;30145;48.874;10.186;2023-06-24T13:49:08;2.90;;;2.63;;
44438;SDS011;30145;48.874;10.186;2023-06-24T13:51:35;3.90;;;2.55;;
44438;SDS011;30145;48.874;10.186;2023-06-24T13:54:02;3.28;;;2.70;;
44438;SDS011;30145;48.874;10.186;2023-06-24T13:56:29;3.80;;;2.60;;
44438;SDS011;30145;48.874;10.186;2023-06-24T13:58:56;4.13;;;2.75;;
44438;SDS011;30145;48.874;10.186;2023-06-24T14:01:23;4.85;;;3.33;;
44438;SDS011;30145;48.874;10.186;2023-06-24T14:03:50;3.17;;;2.63;;
44438;SDS011;30145;48.874;10.186;2023-06-24T14:06:19;2.83;;;2.60;;
44438;SDS011;30145;48.874;10.186;2023-06-24T14:08:47;4.88;;;3.10;;
44438;SDS011;30145;48.874;10.186;2023-06-24T14:11:14;2.88;;;2.63;;
44438;SDS011;30145;48.874;10.186;2023-06-24T14:13:42;3.58;;;3.00;;
44438;SDS011;30145;48.874;10.186;2023-06-24T14:16:10;3.95;;;2.80;;
44438;SDS011;30145;48.874;10.186;2023-06-24T14:18:37;2.58;;;2.33;;
44438;SDS011;30145;48.874;10.186;2023-06-24T14:21:05;2.67;;;2.45;;
44438;SDS011;30145;48.874;10.186;2023-06-24T14:23:33;3.47;;;2.88;;
44438;SDS011;30145;48.874;10.186;2023-06-24T14:26:00;3.88;;;2.63;;
44438;SDS011;30145;48.874;10.186;2023-06-24T14:28:27;3.15;;;2.83;;
44438;SDS011;30145;48.874;10.186;2023-06-24T14:30:54;2.75;;;2.47;;
44438;SDS011;30145;48.874;10.186;2023-06-24T14:33:21;2.40;;;2.20;;
44438;SDS011;30145;48.874;10.186;2023-06-24T14:35:51;3.00;;;2.70;;
44438;SDS011;30145;48.874;10.186;2023-06-24T14:38:19;2.92;;;2.60;;
44438;SDS011;30145;48.874;10.186;2023-06-24T14:40:46;3.28;;;2.50;;
44438;SDS011;30145;48.874;10.186;2023-06-24T14:43:13;3.10;;;2.67;;
44438;SDS011;30145;48.874;10.186;2023-06-24T14:45:40;5.25;;;2.58;;
44438;SDS011;30145;48.874;10.186;2023-06-24T14:48:07;2.83;;;2.50;;
44438;SDS011;30145;48.874;10.186;2023-06-24T14:50:34;3.15;;;2.85;;
44438;SDS011;30145;48.874;10.186;2023-06-24T14:53:02;2.70;;;2.50;;
44438;SDS011;30145;48.874;10.186;2023-06-24T14:55:29;2.58;;;2.38;;
44438;SDS011;30145;48.874;10.186;2023-06-24T14:57:56;3.47;;;2.35;;
44438;SDS011;30145;48.874;10.186;2023-06-24T15:00:23;3.40;;;2.65;;
44438;SDS011;30145;48.874;10.186;2023-06-24T15:02:51;3.00;;;2.60;;
44438;SDS011;30145;48.874;10.186;2023-06-24T15:05:18;3.20;;;2.67;;
44438;SDS011;30145;48.874;10.186;2023-06-24T15:07:45;4.32;;;2.55;;
44438;SDS011;30145;48.874;10.186;2023-06-24T15:10:12;3.08;;;2.55;;
44438;SDS011;30145;48.874;10.186;2023-06-24T15:12:39;2.97;;;2.50;;
44438;SDS011;30145;48.874;10.186;2023-06-24T15:15:06;3.80;;;2.55;;
44438;SDS011;30145;48.874;10.186;2023-06-24T15:17:34;3.40;;;2.40;;
44438;SDS011;30145;48.874;10.186;2023-06-24T15:20:02;2.70;;;2.50;;
44438;SDS011;30145;48.874;10.186;2023-06-24T15:22:30;2.60;;;2.22;;
44438;SDS011;30145;48.874;10.186;2023-06-24T15:24:57;2.97;;;2.33;;
44438;SDS011;30145;48.874;10.186;2023-06-24T15:27:24;3.00;;;2.70;;
44438;SDS011;30145;48.874;10.186;2023-06-24T15:33:19;3.05;;;2.53;;
44438;SDS011;30145;48.874;10.186;2023-06-24T15:35:47;2.75;;;2.47;;
44438;SDS011;30145;48.874;10.186;2023-06-24T15:38:14;2.78;;;2.58;;
44438;SDS011;30145;48.874;10.186;2023-06-24T15:40:43;3.05;;;2.75;;
44438;SDS011;30145;48.874;10.186;2023-06-24T15:43:10;3.00;;;2.70;;
44438;SDS011;30145;48.874;10.186;2023-06-24T15:45:38;2.85;;;2.50;;
44438;SDS011;30145;48.874;10.186;2023-06-24T15:48:06;3.33;;;3.00;;
44438;SDS011;30145;48.874;10.186;2023-06-24T15:50:33;3.67;;;2.58;;
44438;SDS011;30145;48.874;10.186;2023-06-24T15:53:01;3.20;;;2.80;;
44438;SDS011;30145;48.874;10.186;2023-06-24T15:55:43;3.08;;;2.78;;
44438;SDS011;30145;48.874;10.186;2023-06-24T15:58:11;3.50;;;2.63;;
44438;SDS011;30145;48.874;10.186;2023-06-24T16:00:41;4.20;;;2.47;;
44438;SDS011;30145;48.874;10.186;2023-06-24T16:03:08;3.00;;;2.70;;
44438;SDS011;30145;48.874;10.186;2023-06-24T16:05:35;2.63;;;2.42;;
44438;SDS011;30145;48.874;10.186;2023-06-24T16:08:04;3.08;;;2.80;;
44438;SDS011;30145;48.874;10.186;2023-06-24T16:10:31;3.05;;;2.75;;
44438;SDS011;30145;48.874;10.186;2023-06-24T16:13:01;3.03;;;2.35;;
44438;SDS011;30145;48.874;10.186;2023-06-24T16:15:28;2.47;;;2.25;;
44438;SDS011;30145;48.874;10.186;2023-06-24T16:17:58;3.08;;;2.25;;
44438;SDS011;30145;48.874;10.186;2023-06-24T16:20:25;2.70;;;2.50;;
44438;SDS011;30145;48.874;10.186;2023-06-24T16:22:52;4.85;;;2.50;;
44438;SDS011;30145;48.874;10.186;2023-06-24T16:25:19;2.78;;;2.58;;
44438;SDS011;30145;48.874;10.186;2023-06-24T16:27:46;3.00;;;2.70;;
44438;SDS011;30145;48.874;10.186;2023-06-24T16:30:13;3.70;;;2.58;;
44438;SDS011;30145;48.874;10.186;2023-06-24T16:32:40;2.47;;;2.28;;
44438;SDS011;30145;48.874;10.186;2023-06-24T16:35:07;2.88;;;2.58;;
44438;SDS011;30145;48.874;10.186;2023-06-24T16:37:34;3.13;;;2.83;;
44438;SDS011;30145;48.874;10.186;2023-06-24T16:40:01;3.10;;;2.80;;
44438;SDS011;30145;48.874;10.186;2023-06-24T16:42:29;3.25;;;2.55;;
44438;SDS011;30145;48.874;10.186;2023-06-24T16:44:56;2.30;;;2.10;;
44438;SDS011;30145;48.874;10.186;2023-06-24T16:47:23;2.80;;;2.60;;
44438;SDS011;30145;48.874;10.186;2023-06-24T16:49:52;3.38;;;2.67;;
44438;SDS011;30145;48.874;10.186;2023-06-24T16:52:20;2.90;;;2.55;;
44438;SDS011;30145;48.874;10.186;2023-06-24T16:54:47;2.38;;;2.17;;
44438;SDS011;30145;48.874;10.186;2023-06-24T16:57:14;2.95;;;2.65;;
44438;SDS011;30145;48.874;10.186;2023-06-24T16:59:41;2.60;;;2.40;;
44438;SDS011;30145;48.874;10.186;2023-06-24T17:02:08;3.35;;;2.20;;
44438;SDS011;30145;48.874;10.186;2023-06-24T17:04:35;2.75;;;2.55;;
44438;SDS011;30145;48.874;10.186;2023-06-24T17:07:02;2.60;;;2.40;;
44438;SDS011;30145;48.874;10.186;2023-06-24T17:09:30;3.30;;;2.95;;
44438;SDS011;30145;48.874;10.186;2023-06-24T17:11:57;4.25;;;3.22;;
44438;SDS011;30145;48.874;10.186;2023-06-24T17:14:24;2.80;;;2.60;;
44438;SDS011;30145;48.874;10.186;2023-06-24T17:16:51;3.35;;;2.55;;
44438;SDS011;30145;48.874;10.186;2023-06-24T17:19:18;5.53;;;3.15;;
44438;SDS011;30145;48.874;10.186;2023-06-24T17:21:45;3.25;;;2.90;;
44438;SDS011;30145;48.874;10.186;2023-06-24T17:24:13;4.07;;;2.75;;
44438;SDS011;30145;48.874;10.186;2023-06-24T17:26:40;5.07;;;2.55;;
44438;SDS011;30145;48.874;10.186;2023-06-24T17:29:07;3.47;;;2.95;;
44438;SDS011;30145;48.874;10.186;2023-06-24T17:31:34;3.53;;;2.80;;
44438;SDS011;30145;48.874;10.186;2023-06-24T17:34:01;3.30;;;3.00;;
44438;SDS011;30145;48.874;10.186;2023-06-24T17:36:28;3.10;;;2.80;;
44438;SDS011;30145;48.874;10.186;2023-06-24T17:38:55;4.00;;;2.88;;
44438;SDS011;30145;48.874;10.186;2023-06-24T17:41:22;4.53;;;4.00;;
44438;SDS011;30145;48.874;10.186;2023-06-24T17:43:50;4.95;;;4.00;;
44438;SDS011;30145;48.874;10.186;2023-06-24T17:46:17;5.97;;;3.47;;
44438;SDS011;30145;48.874;10.186;2023-06-24T17:48:44;4.10;;;3.33;;
44438;SDS011;30145;48.874;10.186;2023-06-24T17:51:11;3.90;;;3.08;;
44438;SDS011;30145;48.874;10.186;2023-06-24T17:53:38;3.78;;;3.22;;
44438;SDS011;30145;48.874;10.186;2023-06-24T17:56:05;3.43;;;3.10;;
44438;SDS011;30145;48.874;10.186;2023-06-24T17:58:32;3.50;;;3.07;;
44438;SDS011;30145;48.874;10.186;2023-06-24T18:00:59;3.73;;;3.20;;
44438;SDS011;30145;48.874;10.186;2023-06-24T18:03:26;3.10;;;2.73;;
44438;SDS011;30145;48.874;10.186;2023-06-24T18:05:53;3.08;;;2.70;;
44438;SDS011;30145;48.874;10.186;2023-06-24T18:08:20;3.83;;;3.03;;
44438;SDS011;30145;48.874;10.186;2023-06-24T18:10:47;4.70;;;3.03;;
44438;SDS011;30145;48.874;10.186;2023-06-24T18:13:14;3.50;;;2.95;;
44438;SDS011;30145;48.874;10.186;2023-06-24T18:15:41;3.70;;;3.33;;
44438;SDS011;30145;48.874;10.186;2023-06-24T18:18:09;3.37;;;2.80;;
44438;SDS011;30145;48.874;10.186;2023-06-24T18:20:36;3.07;;;2.80;;
44438;SDS011;30145;48.874;10.186;2023-06-24T18:23:03;2.97;;;2.70;;
44438;SDS011;30145;48.874;10.186;2023-06-24T18:25:30;4.03;;;3.13;;
44438;SDS011;30145;48.874;10.186;2023-06-24T18:27:57;3.40;;;3.00;;
44438;SDS011;30145;48.874;10.186;2023-06-24T18:30:24;3.73;;;3.33;;
44438;SDS011;30145;48.874;10.186;2023-06-24T18:32:51;5.20;;;3.10;;
44438;SDS011;30145;48.874;10.186;2023-06-24T18:35:18;3.47;;;2.80;;
44438;SDS011;30145;48.874;10.186;2023-06-24T18:37:45;3.90;;;3.03;;
44438;SDS011;30145;48.874;10.186;2023-06-24T18:40:13;4.70;;;3.57;;
44438;SDS011;30145;48.874;10.186;2023-06-24T18:42:41;4.47;;;3.37;;
44438;SDS011;30145;48.874;10.186;2023-06-24T18:45:08;3.67;;;3.20;;
44438;SDS011;30145;48.874;10.186;2023-06-24T18:47:36;3.30;;;2.77;;
44438;SDS011;30145;48.874;10.186;2023-06-24T18:50:03;3.40;;;3.10;;
44438;SDS011;30145;48.874;10.186;2023-06-24T18:52:30;3.47;;;2.90;;
44438;SDS011;30145;48.874;10.186;2023-06-24T18:54:57;3.80;;;3.20;;
44438;SDS011;30145;48.874;10.186;2023-06-24T18:57:24;4.33;;;3.10;;
44438;SDS011;30145;48.874;10.186;2023-06-24T18:59:51;4.43;;;3.20;;
44438;SDS011;30145;48.874;10.186;2023-06-24T19:02:18;3.20;;;2.90;;
44438;SDS011;30145;48.874;10.186;2023-06-24T19:04:45;3.10;;;2.80;;
44438;SDS011;30145;48.874;10.186;2023-06-24T19:07:12;3.83;;;3.00;;
44438;SDS011;30145;48.874;10.186;2023-06-24T19:09:39;4.43;;;3.03;;
44438;SDS011;30145;48.874;10.186;2023-06-24T19:12:06;3.30;;;2.90;;
44438;SDS011;30145;48.874;10.186;2023-06-24T19:14:33;5.67;;;3.13;;
44438;SDS011;30145;48.874;10.186;2023-06-24T19:17:01;3.43;;;3.13;;
44438;SDS011;30145;48.874;10.186;2023-06-24T19:19:28;4.30;;;3.57;;
44438;SDS011;30145;48.874;10.186;2023-06-24T19:21:56;3.03;;;2.73;;
44438;SDS011;30145;48.874;10.186;2023-06-24T19:24:23;3.57;;;3.27;;
44438;SDS011;30145;48.874;10.186;2023-06-24T19:26:50;3.50;;;2.90;;
44438;SDS011;30145;48.874;10.186;2023-06-24T19:29:17;3.63;;;3.30;;
44438;SDS011;30145;48.874;10.186;2023-06-24T19:31:46;4.27;;;2.90;;
44438;SDS011;30145;48.874;10.186;2023-06-24T19:34:13;4.33;;;3.00;;
44438;SDS011;30145;48.874;10.186;2023-06-24T19:36:40;5.20;;;3.60;;
44438;SDS011;30145;48.874;10.186;2023-06-24T19:39:08;3.50;;;3.20;;
44438;SDS011;30145;48.874;10.186;2023-06-24T19:41:35;4.43;;;3.30;;
44438;SDS011;30145;48.874;10.186;2023-06-24T19:44:06;4.97;;;3.43;;
44438;SDS011;30145;48.874;10.186;2023-06-24T19:46:34;4.00;;;3.30;;
44438;SDS011;30145;48.874;10.186;2023-06-24T19:49:06;4.03;;;3.00;;
44438;SDS011;30145;48.874;10.186;2023-06-24T19:51:33;4.07;;;3.00;;
44438;SDS011;30145;48.874;10.186;2023-06-24T19:54:00;4.43;;;3.07;;
44438;SDS011;30145;48.874;10.186;2023-06-24T19:56:31;3.80;;;3.00;;
44438;SDS011;30145;48.874;10.186;2023-06-24T19:58:58;4.50;;;2.93;;
44438;SDS011;30145;48.874;10.186;2023-06-24T20:01:25;3.40;;;2.80;;
44438;SDS011;30145;48.874;10.186;2023-06-24T20:03:52;3.97;;;3.40;;
44438;SDS011;30145;48.874;10.186;2023-06-24T20:06:20;3.93;;;3.23;;